Overview Statistics Trail Chart Weather Telemetry Raw packets
 

This is the latest recevied weather packets stored in our database for station/object WA1TYB-13. If no packets are shown the sender has not sent any weather packets the latest 10 day(s).

<< 86 87 88 89 90 91 92 >>
Time Temp. Humidity Pressure Rain* Wind** Luminosity Snow
1787977602 17.78° C 67% 1016.2 hPa 0 mm - 0 W/m² -
1787977297 17.78° C 67% 1016.2 hPa 0 mm - 0 W/m² -
1787976993 17.78° C 68% 1016.2 hPa 0 mm - 0 W/m² -
1787976693 17.78° C 67% 1016 hPa 0 mm - 0 W/m² -
1787976388 17.78° C 68% 1016 hPa 0 mm - 0 W/m² -
1787976083 17.78° C 69% 1015.9 hPa 0 mm - 0 W/m² -
1787975782 18.33° C 67% 1015.9 hPa 0 mm - 0 W/m² -
1787975480 18.89° C 63% 1015.9 hPa 0 mm - 0 W/m² -
1787975180 18.89° C 59% 1016.1 hPa 0 mm - 0 W/m² -
1787974879 18.33° C 65% 1016.6 hPa 0 mm - 0 W/m² -
1787974578 17.78° C 70% 1016.2 hPa 0 mm - 0 W/m² -
1787974274 17.78° C 68% 1015.7 hPa 0 mm - 0 W/m² -
1787973972 17.78° C 70% 1015.8 hPa 0 mm - 0 W/m² -
1787973668 17.78° C 69% 1015.8 hPa 0 mm - 0 W/m² -
1787973363 17.78° C 68% 1015.6 hPa 0 mm - 0 W/m² -
1787973062 17.78° C 67% 1015.2 hPa 0 mm - 0 W/m² -
1787972757 18.33° C 66% 1015.2 hPa 0 mm - 0 W/m² -
1787972456 20° C 55% 1015.3 hPa 0 mm - 0 W/m² -
1787972151 19.44° C 59% 1015 hPa 0 mm - 0 W/m² -
1787971846 18.89° C 63% 1014.8 hPa 0 mm - 0 W/m² -
1787971542 18.33° C 63% 1014.9 hPa 0 mm - 0 W/m² -
1787971237 18.33° C 67% 1015.3 hPa 0 mm - 0 W/m² -
1787970937 18.89° C 66% 1015.2 hPa 7.11 mm - 0 W/m² -
1787970632 19.44° C 64% 1015 hPa 6.1 mm - 0 W/m² -
1787970331 19.44° C 63% 1015.3 hPa 0 mm - 0 W/m² -

* Rain latest hour (hover to see other rain measurements)
** Current wind speed in m/s (hover to see current wind gust speed)